createdAt,value
2018-11-26T00:00:52.336Z,97466.98
2018-11-26T00:03:22.574Z,97460.89
2018-11-26T00:05:52.597Z,97459.08
2018-11-26T00:08:23.199Z,97454.83
2018-11-26T00:12:01.671Z,97455.37
2018-11-26T00:14:32.463Z,97450.83
2018-11-26T00:17:03.436Z,97446.08
2018-11-26T00:19:33.648Z,97441.36
2018-11-26T00:22:06.727Z,97445.56
2018-11-26T00:24:38.476Z,97440.04
2018-11-26T00:27:10.471Z,97436.59
2018-11-26T00:29:40.620Z,97437.94
2018-11-26T00:32:11.309Z,97439.84
2018-11-26T00:34:41.603Z,97435.09
2018-11-26T00:37:12.067Z,97437.23
2018-11-26T00:39:42.899Z,97437.77
2018-11-26T00:42:12.888Z,97434.34
2018-11-26T00:44:42.930Z,97444.94
2018-11-26T00:47:13.499Z,97438.61
2018-11-26T00:49:43.583Z,97443.90
2018-11-26T00:52:13.885Z,97441.25
2018-11-26T00:54:44.578Z,97438.06
2018-11-26T00:57:14.743Z,97445.70
2018-11-26T00:59:45.369Z,97439.58
2018-11-26T01:02:16.120Z,97441.94
2018-11-26T01:04:46.146Z,97440.91
2018-11-26T01:07:16.639Z,97439.55
2018-11-26T01:09:46.716Z,97437.94
2018-11-26T01:12:17.386Z,97441.66
2018-11-26T01:14:47.719Z,97439.78
2018-11-26T01:17:18.163Z,97439.78
2018-11-26T01:19:48.677Z,97434.75
2018-11-26T01:22:19.065Z,97438.72
2018-11-26T01:24:49.698Z,97434.48
2018-11-26T01:27:19.710Z,97434.48
2018-11-26T01:29:50.467Z,97425.23
2018-11-26T01:32:21.007Z,97421.03
2018-11-26T01:34:51.533Z,97419.19
2018-11-26T01:37:22.074Z,97416.77
2018-11-26T01:39:52.264Z,97414.38
2018-11-26T01:42:22.851Z,97418.36
2018-11-26T01:44:53.181Z,97413.87
2018-11-26T01:47:23.452Z,97411.73
2018-11-26T01:49:53.771Z,97409.09
2018-11-26T01:52:24.094Z,97405.67
2018-11-26T01:54:54.426Z,97399.57
2018-11-26T01:57:24.791Z,97399.34
2018-11-26T01:59:55.073Z,97396.41
2018-11-26T02:02:25.377Z,97391.42
2018-11-26T02:04:55.762Z,97388.52
2018-11-26T02:07:26.107Z,97380.58
2018-11-26T02:09:56.285Z,97375.58
2018-11-26T02:12:26.699Z,97370.80
2018-11-26T02:14:57.292Z,97374.80
2018-11-26T02:17:27.335Z,97374.02
2018-11-26T02:19:57.773Z,97374.82
2018-11-26T02:22:28.365Z,97371.66
2018-11-26T02:24:58.434Z,97369.81
2018-11-26T02:27:28.855Z,97367.40
2018-11-26T02:30:00.013Z,97368.20
2018-11-26T02:32:32.104Z,97367.69
2018-11-26T02:35:03.475Z,97367.98
2018-11-26T02:37:36.182Z,97366.08
2018-11-26T02:40:08.263Z,97361.88
2018-11-26T02:42:42.969Z,97366.91
2018-11-26T02:45:16.771Z,97360.84
2018-11-26T02:47:46.766Z,97355.55
2018-11-26T02:50:16.874Z,97356.09
2018-11-26T02:52:47.335Z,97356.09
2018-11-26T02:55:17.679Z,97355.31
2018-11-26T02:57:48.018Z,97350.75
2018-11-26T03:00:21.111Z,97353.13
2018-11-26T03:02:51.290Z,97351.81
2018-11-26T03:05:30.589Z,97352.91
2018-11-26T03:08:01.302Z,97353.44
2018-11-26T03:10:33.704Z,97351.86
2018-11-26T03:13:05.450Z,97353.18
2018-11-26T03:15:35.606Z,97351.11
2018-11-26T03:18:07.035Z,97346.06
2018-11-26T03:20:39.339Z,97350.04
2018-11-26T03:23:10.506Z,97351.65
2018-11-26T03:25:40.545Z,97354.30
2018-11-26T03:28:13.482Z,97356.14
2018-11-26T03:30:44.355Z,97355.08
2018-11-26T03:33:14.437Z,97352.95
2018-11-26T03:35:44.426Z,97351.34
2018-11-26T03:38:16.622Z,97354.79
2018-11-26T03:40:48.382Z,97349.78
2018-11-26T03:43:20.348Z,97355.85
2018-11-26T03:45:52.307Z,97347.39
2018-11-26T03:48:23.731Z,97349.80
2018-11-26T03:50:56.304Z,97354.55
2018-11-26T03:53:26.459Z,97354.03
2018-11-26T03:55:57.397Z,97355.62
2018-11-26T03:58:27.953Z,97356.41
2018-11-26T04:00:58.454Z,97350.30
2018-11-26T04:03:28.756Z,97348.45
2018-11-26T04:05:59.059Z,97346.85
2018-11-26T04:08:29.363Z,97345.55
2018-11-26T04:10:59.683Z,97325.70
2018-11-26T04:13:30.018Z,97335.77
2018-11-26T04:16:00.356Z,97331.80
2018-11-26T04:18:30.466Z,97323.33
2018-11-26T04:21:00.535Z,97324.11
2018-11-26T04:23:31.346Z,97329.17
2018-11-26T04:26:01.534Z,97327.33
2018-11-26T04:28:31.762Z,97327.33
2018-11-26T04:31:02.269Z,97323.88
2018-11-26T04:33:32.670Z,97322.78
2018-11-26T04:36:03.262Z,97319.39
2018-11-26T04:38:33.528Z,97324.68
2018-11-26T04:41:03.780Z,97317.49
2018-11-26T04:43:34.295Z,97316.17
2018-11-26T04:46:04.616Z,97323.36
2018-11-26T04:48:34.656Z,97324.91
2018-11-26T04:51:08.798Z,97320.69
2018-11-26T04:53:41.823Z,97331.02
2018-11-26T04:56:14.828Z,97327.56
2018-11-26T04:58:46.592Z,97327.83
2018-11-26T05:01:17.846Z,97323.36
2018-11-26T05:03:48.781Z,97318.06
2018-11-26T05:06:20.834Z,97320.42
2018-11-26T05:08:52.784Z,97323.88
2018-11-26T05:11:23.212Z,97320.14
2018-11-26T05:13:53.538Z,97317.00
2018-11-26T05:16:23.910Z,97317.55
2018-11-26T05:18:54.295Z,97316.73
2018-11-26T05:21:24.603Z,97320.97
2018-11-26T05:23:54.843Z,97314.34
2018-11-26T05:26:25.475Z,97309.60
2018-11-26T05:28:55.754Z,97323.61
2018-11-26T05:31:26.169Z,97316.73
2018-11-26T05:33:57.843Z,97316.73
2018-11-26T05:36:29.934Z,97318.32
2018-11-26T05:38:59.947Z,97315.41
2018-11-26T05:41:29.971Z,97312.20
2018-11-26T05:44:04.557Z,97317.23
2018-11-26T05:46:40.816Z,97313.81
2018-11-26T05:49:13.834Z,97311.94
2018-11-26T05:51:44.397Z,97314.84
2018-11-26T05:54:14.554Z,97318.81
2018-11-26T05:56:45.146Z,97307.69
2018-11-26T05:59:15.702Z,97311.94
2018-11-26T06:01:46.166Z,97314.59
2018-11-26T06:04:17.527Z,97310.62
2018-11-26T06:06:50.107Z,97311.41
2018-11-26T06:09:20.171Z,97307.97
2018-11-26T06:11:51.297Z,97315.63
2018-11-26T06:14:24.105Z,97320.14
2018-11-26T06:16:55.111Z,97320.42
2018-11-26T06:19:28.109Z,97324.91
2018-11-26T06:21:59.039Z,97319.10
2018-11-26T06:24:29.094Z,97322.84
2018-11-26T06:26:59.234Z,97327.33
2018-11-26T06:29:35.706Z,97319.39
2018-11-26T06:32:06.237Z,97325.22
2018-11-26T06:34:38.600Z,97325.48
2018-11-26T06:37:06.990Z,97330.80
2018-11-26T06:39:37.029Z,97331.58
2018-11-26T06:42:07.217Z,97333.16
2018-11-26T06:44:38.073Z,97338.17
2018-11-26T06:47:08.718Z,97337.66
2018-11-26T06:49:38.714Z,97334.20
2018-11-26T06:52:08.985Z,97339.50
2018-11-26T06:54:39.342Z,97336.83
2018-11-26T06:57:09.899Z,97344.53
2018-11-26T06:59:39.908Z,97349.05
2018-11-26T07:02:10.169Z,97357.82
2018-11-26T07:04:40.213Z,97354.89
2018-11-26T07:07:10.690Z,97357.53
2018-11-26T07:09:41.149Z,97362.55
2018-11-26T07:12:11.463Z,97360.67
2018-11-26T07:14:41.773Z,97365.14
2018-11-26T07:17:12.045Z,97365.92
2018-11-26T07:19:42.469Z,97365.69
2018-11-26T07:22:12.908Z,97370.44
2018-11-26T07:24:43.190Z,97378.12
2018-11-26T07:27:13.433Z,97369.06
2018-11-26T07:29:43.949Z,97374.84
2018-11-26T07:32:14.402Z,97376.41
2018-11-26T07:34:44.594Z,97375.62
2018-11-26T07:37:14.752Z,97381.41
2018-11-26T07:39:45.328Z,97382.48
2018-11-26T07:42:15.714Z,97385.88
2018-11-26T07:44:46.002Z,97386.37
2018-11-26T07:47:16.332Z,97387.98
2018-11-26T07:49:46.638Z,97392.20
2018-11-26T07:52:17.088Z,97389.50
2018-11-26T07:54:47.391Z,97391.61
2018-11-26T07:57:17.443Z,97389.25
2018-11-26T07:59:48.165Z,97395.89
2018-11-26T08:02:18.538Z,97404.29
2018-11-26T08:04:48.551Z,97406.39
2018-11-26T08:07:19.481Z,97407.13
2018-11-26T08:09:50.047Z,97404.78
2018-11-26T08:12:20.109Z,97405.81
2018-11-26T08:14:50.484Z,97407.39
2018-11-26T08:17:20.551Z,97410.39
2018-11-26T08:19:50.786Z,97412.05
2018-11-26T08:22:21.574Z,97420.14
2018-11-26T08:24:51.795Z,97422.46
2018-11-26T08:27:23.764Z,97425.08
2018-11-26T08:29:58.610Z,97421.31
2018-11-26T08:32:34.037Z,97422.98
2018-11-26T08:34:59.774Z,97439.86
2018-11-26T08:37:33.543Z,97434.34
2018-11-26T08:40:09.183Z,97444.63
2018-11-26T08:42:45.875Z,97440.47
2018-11-26T08:45:21.138Z,97444.95
2018-11-26T08:48:05.207Z,97446.11
2018-11-26T08:50:37.031Z,97454.02
2018-11-26T08:53:08.983Z,97453.92
2018-11-26T08:55:39.795Z,97461.31
2018-11-26T08:58:11.868Z,97462.92
2018-11-26T09:00:43.566Z,97467.44
2018-11-26T09:03:19.227Z,97462.13
2018-11-26T09:06:00.132Z,97465.77
2018-11-26T09:08:31.482Z,97470.55
2018-11-26T09:11:03.830Z,97470.28
2018-11-26T09:13:34.586Z,97465.83
2018-11-26T09:16:07.576Z,97476.67
2018-11-26T09:18:39.978Z,97478.19
2018-11-26T09:21:12.374Z,97477.41
2018-11-26T09:23:44.031Z,97483.22
2018-11-26T09:26:14.551Z,97480.77
2018-11-26T09:30:43.788Z,97485.13
2018-11-26T09:33:14.058Z,97483.80
2018-11-26T09:35:44.196Z,97491.19
2018-11-26T09:38:14.586Z,97481.09
2018-11-26T09:40:47.106Z,97485.48
2018-11-26T09:43:20.815Z,97485.13
2018-11-26T09:45:51.168Z,97485.19
2018-11-26T09:48:22.007Z,97485.86
2018-11-26T09:50:52.030Z,97487.41
2018-11-26T09:53:22.693Z,97490.52
2018-11-26T09:56:17.037Z,97483.25
2018-11-26T09:59:16.621Z,97428.63
2018-11-26T10:01:48.125Z,97485.02
2018-11-26T10:04:21.131Z,97486.45
2018-11-26T10:06:54.970Z,97479.48
2018-11-26T10:09:25.662Z,97479.59
2018-11-26T10:11:56.095Z,97484.94
2018-11-26T10:14:27.332Z,97487.47
2018-11-26T10:17:00.067Z,97494.63
2018-11-26T10:19:30.261Z,97490.04
2018-11-26T10:22:07.146Z,97480.91
2018-11-26T10:24:37.306Z,97484.61
2018-11-26T10:27:08.453Z,97487.95
2018-11-26T10:29:41.120Z,97493.20
2018-11-26T10:32:14.521Z,97489.41
2018-11-26T10:34:45.410Z,97487.28
2018-11-26T10:37:15.431Z,97489.92
2018-11-26T10:39:46.275Z,97495.30
2018-11-26T10:42:17.053Z,97488.79
2018-11-26T10:44:47.179Z,97497.22
2018-11-26T10:47:17.625Z,97495.27
2018-11-26T10:49:48.223Z,97498.89
2018-11-26T10:52:18.306Z,97499.86
2018-11-26T10:54:52.209Z,97502.06
2018-11-26T10:57:22.308Z,97503.90
2018-11-26T10:59:53.241Z,97504.78
2018-11-26T11:02:29.998Z,97497.11
2018-11-26T11:05:00.665Z,97503.77
2018-11-26T11:07:33.491Z,97499.97
2018-11-26T11:10:13.883Z,97490.12
2018-11-26T11:12:46.486Z,97499.88
2018-11-26T11:15:18.763Z,97494.81
2018-11-26T11:17:50.994Z,97490.30
2018-11-26T11:20:28.494Z,97488.98
2018-11-26T11:23:00.735Z,97492.67
2018-11-26T11:25:31.526Z,97505.88
2018-11-26T11:28:01.571Z,97492.94
2018-11-26T11:30:31.583Z,97498.98
2018-11-26T11:35:33.245Z,97497.45
2018-11-26T11:38:03.572Z,97498.52
2018-11-26T11:40:34.497Z,97497.36
2018-11-26T11:43:04.890Z,97497.56
2018-11-26T11:45:38.107Z,97500.37
2018-11-26T11:48:08.771Z,97490.02
2018-11-26T11:50:48.795Z,97498.09
2018-11-26T11:53:39.956Z,97488.56
2018-11-26T11:56:10.656Z,97492.42
2018-11-26T11:58:40.688Z,97496.11
2018-11-26T12:01:11.667Z,97486.88
2018-11-26T12:03:44.325Z,97489.52
2018-11-26T12:06:15.510Z,97492.16
2018-11-26T12:08:46.588Z,97483.55
2018-11-26T12:11:18.681Z,97487.06
2018-11-26T12:13:50.785Z,97489.43
2018-11-26T12:16:21.440Z,97489.70
2018-11-26T12:18:51.687Z,97490.97
2018-11-26T12:21:21.666Z,97491.62
2018-11-26T12:23:52.758Z,97491.27
2018-11-26T12:26:23.659Z,97494.88
2018-11-26T12:28:57.156Z,97497.97
2018-11-26T12:31:27.777Z,97500.04
2018-11-26T12:33:58.844Z,97500.04
2018-11-26T12:36:28.826Z,97494.31
2018-11-26T12:38:59.772Z,97499.18
2018-11-26T12:41:29.767Z,97504.70
2018-11-26T12:44:00.834Z,97496.44
2018-11-26T12:46:31.857Z,97495.52
2018-11-26T12:49:01.878Z,97496.02
2018-11-26T12:51:32.831Z,97501.54
2018-11-26T12:54:02.944Z,97501.75
2018-11-26T12:56:33.975Z,97507.03
2018-11-26T12:59:03.995Z,97508.29
2018-11-26T13:01:34.836Z,97508.69
2018-11-26T13:04:05.871Z,97505.48
2018-11-26T13:06:39.760Z,97506.17
2018-11-26T13:09:10.107Z,97507.41
2018-11-26T13:11:40.937Z,97509.78
2018-11-26T13:14:12.078Z,97502.02
2018-11-26T13:16:42.077Z,97505.98
2018-11-26T13:19:12.961Z,97513.83
2018-11-26T13:21:42.993Z,97513.94
2018-11-26T13:24:14.026Z,97513.61
2018-11-26T13:26:44.094Z,97511.76
2018-11-26T13:29:14.851Z,97516.97
2018-11-26T13:31:45.164Z,97510.98
2018-11-26T13:34:15.277Z,97522.53
2018-11-26T13:36:49.074Z,97519.33
2018-11-26T13:39:21.131Z,97527.45
2018-11-26T13:41:53.095Z,97527.80
2018-11-26T13:44:24.000Z,97533.05
2018-11-26T13:46:54.239Z,97537.00
2018-11-26T13:49:24.266Z,97535.47
2018-11-26T13:51:59.521Z,97542.89
2018-11-26T13:54:30.381Z,97547.90
2018-11-26T13:57:00.944Z,97547.90
2018-11-26T13:59:31.801Z,97543.62
2018-11-26T14:02:02.081Z,97554.93
2018-11-26T14:04:32.158Z,97550.98
2018-11-26T14:07:07.189Z,97560.65
2018-11-26T14:09:40.188Z,97558.46
2018-11-26T14:12:11.132Z,97557.89
2018-11-26T14:14:41.214Z,97560.53
2018-11-26T14:17:12.434Z,97562.86
2018-11-26T14:19:43.554Z,97560.53
2018-11-26T14:22:13.611Z,97564.03
2018-11-26T14:24:44.231Z,97566.23
2018-11-26T14:27:15.076Z,97574.72
2018-11-26T14:29:46.313Z,97576.48
2018-11-26T14:32:18.288Z,97577.52
2018-11-26T14:34:50.383Z,97573.51
2018-11-26T14:37:21.199Z,97570.20
2018-11-26T14:39:53.260Z,97573.28
2018-11-26T14:42:24.682Z,97584.13
2018-11-26T14:44:59.678Z,97583.82
2018-11-26T14:47:31.403Z,97585.44
2018-11-26T14:50:02.438Z,97588.27
2018-11-26T14:52:35.437Z,97590.70
2018-11-26T14:55:09.241Z,97595.61
2018-11-26T14:57:39.412Z,97598.81
2018-11-26T15:00:16.078Z,97600.94
2018-11-26T15:02:47.050Z,97595.84
2018-11-26T15:05:18.441Z,97596.86
2018-11-26T15:07:48.823Z,97597.03
2018-11-26T15:10:21.924Z,97600.17
2018-11-26T15:12:53.573Z,97602.50
2018-11-26T15:15:25.960Z,97604.32
2018-11-26T15:17:57.640Z,97600.81
2018-11-26T15:20:29.591Z,97608.27
2018-11-26T15:23:07.697Z,97618.80
2018-11-26T15:25:41.487Z,97618.80
2018-11-26T15:28:13.737Z,97620.42
2018-11-26T15:30:51.520Z,97619.41
2018-11-26T15:33:21.551Z,97626.70
2018-11-26T15:35:53.592Z,97631.70
2018-11-26T15:38:24.629Z,97626.13
2018-11-26T15:40:56.603Z,97637.67
2018-11-26T15:43:27.512Z,97633.02
2018-11-26T15:45:59.653Z,97641.55
2018-11-26T15:48:30.683Z,97639.16
2018-11-26T15:51:01.265Z,97634.47
2018-11-26T15:53:31.773Z,97639.59
2018-11-26T15:56:01.842Z,97638.41
2018-11-26T15:58:32.828Z,97640.03
2018-11-26T16:01:03.520Z,97640.84
2018-11-26T16:03:33.673Z,97645.61
2018-11-26T16:06:04.608Z,97641.59
2018-11-26T16:08:35.280Z,97595.88
2018-11-26T16:11:06.109Z,97639.16
2018-11-26T16:13:36.391Z,97644.42
2018-11-26T16:16:07.390Z,97648.07
2018-11-26T16:18:37.911Z,97646.18
2018-11-26T16:21:08.647Z,97649.89
2018-11-26T16:23:38.777Z,97650.43
2018-11-26T16:26:09.660Z,97651.66
2018-11-26T16:28:39.887Z,97650.50
2018-11-26T16:31:10.895Z,97658.16
2018-11-26T16:33:41.798Z,97650.27
2018-11-26T16:36:11.980Z,97653.70
2018-11-26T16:38:42.891Z,97658.73
2018-11-26T16:41:13.973Z,97656.27
2018-11-26T16:43:44.830Z,97664.08
2018-11-26T16:46:15.187Z,97656.72
2018-11-26T16:48:46.600Z,97655.84
2018-11-26T16:51:16.652Z,97666.64
2018-11-26T16:53:48.539Z,97669.34
2018-11-26T16:56:18.596Z,97675.42
2018-11-26T16:58:48.765Z,97676.46
2018-11-26T17:01:18.879Z,97682.23
2018-11-26T17:03:49.793Z,97689.02
2018-11-26T17:06:20.315Z,97683.91
2018-11-26T17:08:50.743Z,97689.55
2018-11-26T17:11:21.349Z,97682.88
2018-11-26T17:13:51.846Z,97689.77
2018-11-26T17:16:22.261Z,97690.34
2018-11-26T17:18:53.071Z,97683.75
2018-11-26T17:21:24.123Z,97689.02
2018-11-26T17:23:54.599Z,97689.32
2018-11-26T17:26:25.087Z,97686.45
2018-11-26T17:28:55.236Z,97688.44
2018-11-26T17:31:26.368Z,97693.70
2018-11-26T17:33:57.006Z,97697.53
2018-11-26T17:36:27.617Z,97699.92
2018-11-26T17:38:58.082Z,97699.25
2018-11-26T17:41:28.410Z,97701.89
2018-11-26T17:43:59.281Z,97700.80
2018-11-26T17:46:33.150Z,97706.13
2018-11-26T17:49:06.112Z,97708.56
2018-11-26T17:51:38.457Z,97700.73
2018-11-26T17:54:15.214Z,97709.72
2018-11-26T17:56:45.445Z,97707.83
2018-11-26T17:59:15.658Z,97711.77
2018-11-26T18:01:47.820Z,97716.84
2018-11-26T18:04:18.303Z,97722.37
2018-11-26T18:06:50.701Z,97721.00
2018-11-26T18:09:22.862Z,97730.35
2018-11-26T18:11:51.403Z,97727.95
2018-11-26T18:14:22.008Z,97725.17
2018-11-26T18:16:52.327Z,97730.14
2018-11-26T18:19:23.088Z,97736.66
2018-11-26T18:21:53.483Z,97738.76
2018-11-26T18:24:24.164Z,97742.50
2018-11-26T18:26:54.656Z,97742.36
2018-11-26T18:29:25.160Z,97741.25
2018-11-26T18:31:55.514Z,97748.34
2018-11-26T18:34:26.249Z,97747.02
2018-11-26T18:36:56.366Z,97749.08
2018-11-26T18:39:27.400Z,97748.70
2018-11-26T18:41:57.452Z,97749.73
2018-11-26T18:44:28.745Z,97739.41
2018-11-26T18:46:59.292Z,97746.95
2018-11-26T18:49:29.996Z,97756.90
2018-11-26T18:52:00.561Z,97754.77
2018-11-26T18:54:31.218Z,97761.43
2018-11-26T18:57:01.907Z,97755.52
2018-11-26T18:59:32.919Z,97764.42
2018-11-26T19:02:06.492Z,97763.84
2018-11-26T19:04:36.658Z,97771.23
2018-11-26T19:07:07.886Z,97767.59
2018-11-26T19:09:38.704Z,97763.34
2018-11-26T19:12:09.686Z,97770.50
2018-11-26T19:14:42.561Z,97771.67
2018-11-26T19:17:13.584Z,97770.64
2018-11-26T19:19:44.663Z,97782.50
2018-11-26T19:22:14.815Z,97777.53
2018-11-26T19:24:45.821Z,97782.30
2018-11-26T19:27:15.958Z,97787.56
2018-11-26T19:29:46.706Z,97782.34
2018-11-26T19:32:18.675Z,97788.97
2018-11-26T19:34:49.636Z,97787.61
2018-11-26T19:37:21.608Z,97795.74
2018-11-26T19:39:51.903Z,97796.60
2018-11-26T19:42:23.637Z,97796.72
2018-11-26T19:44:54.718Z,97799.97
2018-11-26T19:47:28.427Z,97800.24
2018-11-26T19:50:02.363Z,97808.83
2018-11-26T19:52:29.956Z,97808.06
2018-11-26T19:55:00.505Z,97816.55
2018-11-26T19:57:30.721Z,97816.19
2018-11-26T20:00:00.960Z,97821.03
2018-11-26T20:02:31.069Z,97824.90
2018-11-26T20:05:03.046Z,97829.55
2018-11-26T20:07:33.660Z,97834.55
2018-11-26T20:10:03.957Z,97831.09
2018-11-26T20:12:34.844Z,97822.97
2018-11-26T20:15:08.594Z,97830.36
2018-11-26T20:17:38.964Z,97830.02
2018-11-26T20:20:10.262Z,97830.16
2018-11-26T20:22:40.974Z,97839.66
2018-11-26T20:25:15.079Z,97843.22
2018-11-26T20:27:45.346Z,97844.03
2018-11-26T20:30:16.020Z,97847.27
2018-11-26T20:32:48.025Z,97856.38
2018-11-26T20:35:24.939Z,97858.81
2018-11-26T20:38:01.869Z,97863.50
2018-11-26T20:40:33.553Z,97861.64
2018-11-26T20:43:04.104Z,97872.56
2018-11-26T20:45:37.761Z,97871.81
2018-11-26T20:48:10.734Z,97876.23
2018-11-26T20:50:47.033Z,97875.19
2018-11-26T20:53:20.719Z,97875.84
2018-11-26T20:55:51.053Z,97874.19
2018-11-26T20:58:22.187Z,97880.45
2018-11-26T21:01:01.071Z,97888.36
2018-11-26T21:03:31.858Z,97883.09
2018-11-26T21:06:02.210Z,97882.97
2018-11-26T21:08:32.915Z,97889.25
2018-11-26T21:11:03.149Z,97889.67
2018-11-26T21:13:37.080Z,97889.39
2018-11-26T21:16:07.494Z,97885.88
2018-11-26T21:18:38.237Z,97890.14
2018-11-26T21:21:11.751Z,97892.38
2018-11-26T21:23:42.297Z,97890.98
2018-11-26T21:26:12.485Z,97891.57
2018-11-26T21:28:43.256Z,97894.34
2018-11-26T21:31:14.307Z,97897.72
2018-11-26T21:33:45.382Z,97894.47
2018-11-26T21:36:15.815Z,97895.51
2018-11-26T21:38:46.281Z,97899.15
2018-11-26T21:41:16.408Z,97897.83
2018-11-26T21:43:47.409Z,97901.36
2018-11-26T21:46:22.358Z,97899.73
2018-11-26T21:48:54.352Z,97903.25
2018-11-26T21:51:25.401Z,97904.87
2018-11-26T21:53:56.324Z,97903.88
2018-11-26T21:56:28.296Z,97903.14
2018-11-26T21:59:00.457Z,97909.84
2018-11-26T22:01:31.470Z,97912.78
2018-11-26T22:04:01.580Z,97911.93
2018-11-26T22:06:32.383Z,97921.77
2018-11-26T22:09:02.543Z,97921.18
2018-11-26T22:11:33.389Z,97923.62
2018-11-26T22:14:04.235Z,97920.67
2018-11-26T22:16:34.413Z,97925.52
2018-11-26T22:19:08.516Z,97916.94
2018-11-26T22:21:41.463Z,97924.28
2018-11-26T22:24:12.526Z,97923.97
2018-11-26T22:26:43.516Z,97928.15
2018-11-26T22:29:15.785Z,97930.05
2018-11-26T22:31:47.568Z,97930.05
2018-11-26T22:34:17.643Z,97936.33
2018-11-26T22:36:48.519Z,97937.64
2018-11-26T22:39:19.564Z,97942.41
2018-11-26T22:41:56.024Z,97945.69
2018-11-26T22:44:26.768Z,97949.80
2018-11-26T22:46:57.559Z,97947.59
2018-11-26T22:49:28.356Z,97949.48
2018-11-26T22:51:58.647Z,97951.70
2018-11-26T22:54:28.668Z,97957.39
2018-11-26T22:57:06.656Z,97956.97
2018-11-26T22:59:37.636Z,97954.75
2018-11-26T23:02:14.546Z,97966.99
2018-11-26T23:04:45.599Z,97961.22
2018-11-26T23:07:15.744Z,97957.27
2018-11-26T23:09:46.572Z,97963.86
2018-11-26T23:12:16.596Z,97962.96
2018-11-26T23:14:47.731Z,97967.92
2018-11-26T23:17:19.684Z,97968.06
2018-11-26T23:19:51.872Z,97976.86
2018-11-26T23:22:22.077Z,97974.41
2018-11-26T23:24:52.615Z,97975.23
2018-11-26T23:27:23.378Z,97978.64
2018-11-26T23:29:53.961Z,97980.49
2018-11-26T23:32:24.869Z,97976.63
2018-11-26T23:34:55.219Z,97981.70
2018-11-26T23:37:25.785Z,97981.28
2018-11-26T23:39:56.259Z,97977.44
2018-11-26T23:42:27.112Z,97979.77
2018-11-26T23:44:57.753Z,97987.55
2018-11-26T23:47:31.647Z,97985.08
2018-11-26T23:50:01.706Z,97983.18
2018-11-26T23:52:35.708Z,97989.37
2018-11-26T23:55:09.424Z,97988.20
2018-11-26T23:57:40.785Z,97996.37
